Niotaze, Kansas
Current Conditions -  °F | °C
As of 10:15 PM on Monday 22 Dec 2014 (Local Time) from KIDP Reporting Station
Clear Clear  
Wind Chill:   Ceiling: Unl
Heat Index:   Visibility: 10mi
Dew Point:   Wind: 5mph
Humidity: 87%   Direction: 190°S
Pressure: 29.66"   Gusts: NA
Location:  37.07°N, 96.01°W
Report Text: KIDP 230415Z AUTO 19004KT 10SM CLR 03/01 A2966 RMK AO2
Loading
Personal Weather Stations






























Interactive Weather Map New forecast layout! Learn more

10-Day Weather Forecast

Advertisements
Track Severe Weather on mobile